Time;durP1;ratioP1;P1;durP2;ratioP2;P2;SDS_P1;SDS_P2;PMS_P1;PMS_P2;Temp;Humidity;BMP_temperature;BMP_pressure;BME280_temperature;BME280_humidity;BME280_pressure;Samples;Min_cycle;Max_cycle;Signal;HPM_P1;HPM_P2
2021/11/30 00:01:08;;;;;;;2.28;1.30;;;0.80;81.60;;;;;;5055485;28;20025;-78
2021/11/30 00:03:34;;;;;;;4.65;1.65;;;0.80;81.80;;;;;;5055303;28;20096;-79
2021/11/30 00:06:00;;;;;;;3.70;1.25;;;0.80;82.00;;;;;;5055253;28;20036;-78
2021/11/30 00:08:29;;;;;;;2.85;1.40;;;0.80;81.70;;;;;;5055181;28;20017;-79
2021/11/30 00:10:58;;;;;;;2.58;1.48;;;0.80;81.90;;;;;;5054997;28;20025;-77
2021/11/30 00:13:25;;;;;;;2.05;1.30;;;0.80;81.90;;;;;;5055157;28;20025;-78
2021/11/30 00:15:52;;;;;;;2.40;1.20;;;0.80;82.00;;;;;;5055253;28;20028;-78
2021/11/30 00:18:18;;;;;;;1.23;1.10;;;0.80;82.00;;;;;;5055180;28;20021;-78
2021/11/30 00:20:44;;;;;;;2.03;1.38;;;0.90;82.00;;;;;;5037499;28;20094;-78
2021/11/30 00:23:11;;;;;;;7.30;1.48;;;0.80;82.00;;;;;;5055874;28;20107;-78
2021/11/30 00:25:37;;;;;;;3.00;1.83;;;0.80;82.10;;;;;;5055407;28;20036;-80
2021/11/30 00:28:03;;;;;;;1.92;1.08;;;0.80;82.10;;;;;;5055544;28;20369;-79
2021/11/30 00:30:30;;;;;;;1.67;1.40;;;0.90;82.00;;;;;;5055852;28;20045;-80
2021/11/30 00:32:56;;;;;;;1.80;1.20;;;0.90;82.00;;;;;;5037670;28;20163;-79
2021/11/30 00:35:22;;;;;;;3.72;1.10;;;0.90;81.80;;;;;;5059066;28;20053;-81
2021/11/30 00:37:48;;;;;;;1.95;1.30;;;0.90;81.40;;;;;;5060530;28;20017;-80
2021/11/30 00:40:14;;;;;;;3.58;1.60;;;1.00;81.50;;;;;;5057913;28;20116;-80
2021/11/30 00:42:40;;;;;;;2.97;1.52;;;0.90;81.50;;;;;;5055371;28;20021;-80
2021/11/30 00:45:09;;;;;;;2.33;1.60;;;0.90;81.30;;;;;;5062759;28;20031;-79
2021/11/30 00:47:38;;;;;;;2.20;1.60;;;0.90;81.00;;;;;;5079418;28;20009;-80
2021/11/30 00:50:06;;;;;;;3.50;1.70;;;0.90;81.40;;;;;;5079342;28;20012;-79
2021/11/30 00:52:32;;;;;;;2.50;1.20;;;0.90;81.00;;;;;;5079414;28;20029;-79
2021/11/30 00:54:58;;;;;;;2.65;0.98;;;0.90;81.30;;;;;;5061670;28;20066;-80
2021/11/30 00:57:25;;;;;;;1.90;1.20;;;1.00;81.00;;;;;;5061687;28;20013;-80
2021/11/30 00:59:52;;;;;;;2.08;1.08;;;0.90;81.40;;;;;;5079021;28;20073;-80
2021/11/30 01:02:18;;;;;;;1.52;1.20;;;0.90;81.40;;;;;;5072305;28;20441;-81
2021/11/30 01:04:44;;;;;;;4.88;1.25;;;0.80;81.20;;;;;;5056106;28;20021;-80
2021/11/30 01:07:11;;;;;;;3.35;1.40;;;0.90;81.30;;;;;;5055773;28;20082;-80
2021/11/30 01:09:38;;;;;;;2.33;1.30;;;0.90;80.80;;;;;;5055061;28;20473;-81
2021/11/30 01:12:04;;;;;;;3.63;1.40;;;0.90;80.70;;;;;;5055416;28;20059;-80
2021/11/30 01:14:30;;;;;;;1.48;1.25;;;0.90;80.80;;;;;;5055226;28;20021;-81
2021/11/30 01:16:56;;;;;;;1.80;1.33;;;0.90;80.90;;;;;;5055161;28;20457;-81
2021/11/30 01:19:21;;;;;;;1.35;1.00;;;0.90;80.90;;;;;;5054068;28;20461;-81
2021/11/30 01:21:47;;;;;;;2.70;1.17;;;0.90;81.10;;;;;;5036116;28;20033;-81
2021/11/30 01:24:12;;;;;;;2.33;1.10;;;1.00;80.70;;;;;;5053810;28;20021;-80
2021/11/30 01:26:38;;;;;;;2.28;1.20;;;1.00;80.80;;;;;;5054098;28;20477;-80
2021/11/30 01:29:04;;;;;;;2.70;1.08;;;1.00;80.90;;;;;;5053605;28;20044;-80
2021/11/30 01:31:30;;;;;;;2.03;1.30;;;0.90;81.10;;;;;;5053703;28;20059;-81
2021/11/30 01:33:56;;;;;;;2.30;1.30;;;1.00;81.10;;;;;;5053559;28;20386;-80
2021/11/30 01:36:22;;;;;;;3.13;1.08;;;0.90;81.20;;;;;;5053542;28;20112;-80
2021/11/30 01:38:48;;;;;;;1.85;1.08;;;0.90;81.10;;;;;;5053553;28;20389;-80
2021/11/30 01:41:14;;;;;;;3.40;1.20;;;0.90;81.30;;;;;;5053268;28;20020;-80
2021/11/30 01:43:42;;;;;;;2.10;1.40;;;0.80;81.00;;;;;;5035552;28;20389;-80
2021/11/30 01:46:25;;;;;;;1.35;1.17;;;0.80;81.20;;;;;;5053535;28;20029;-80
2021/11/30 01:51:35;;;;;;;2.60;1.40;;;0.80;81.20;;;;;;5053190;28;20035;-80
2021/11/30 01:54:01;;;;;;;3.97;1.40;;;0.70;80.70;;;;;;5053215;28;20029;-80
2021/11/30 01:56:27;;;;;;;2.42;0.95;;;0.80;80.60;;;;;;5053256;28;20036;-80
2021/11/30 01:58:53;;;;;;;2.80;1.40;;;0.70;79.80;;;;;;5053270;28;20040;-79
2021/11/30 02:01:19;;;;;;;1.27;1.10;;;0.70;79.70;;;;;;5053169;28;20032;-79
2021/11/30 02:03:46;;;;;;;3.75;1.27;;;0.80;79.60;;;;;;5053517;28;20029;-81
2021/11/30 02:06:12;;;;;;;5.47;1.30;;;0.90;79.20;;;;;;5053280;28;20035;-80
2021/11/30 02:08:38;;;;;;;3.53;1.35;;;0.80;78.80;;;;;;5053214;28;20385;-81
2021/11/30 02:11:04;;;;;;;3.13;1.10;;;0.70;78.80;;;;;;5053005;28;20033;-81
2021/11/30 02:13:31;;;;;;;2.58;1.40;;;0.70;78.70;;;;;;5053109;28;20025;-80
2021/11/30 02:15:59;;;;;;;2.55;1.20;;;0.80;78.80;;;;;;5052844;28;20021;-80
2021/11/30 02:18:24;;;;;;;2.50;1.50;;;0.80;78.80;;;;;;5054066;28;20082;-80
2021/11/30 02:20:57;;;;;;;7.40;1.42;;;0.70;78.70;;;;;;5051995;28;20025;-80
2021/11/30 02:23:32;;;;;;;5.47;1.40;;;0.80;78.60;;;;;;5052993;28;20025;-79
2021/11/30 02:26:05;;;;;;;4.00;1.58;;;0.80;78.30;;;;;;5052696;28;20022;-79
2021/11/30 02:28:31;;;;;;;2.78;1.20;;;0.80;77.60;;;;;;5052839;28;20495;-79
2021/11/30 02:30:56;;;;;;;2.53;1.48;;;0.80;77.40;;;;;;5052717;28;20037;-79
2021/11/30 02:33:22;;;;;;;6.65;1.55;;;0.90;77.20;;;;;;5052827;28;20021;-79
2021/11/30 02:35:48;;;;;;;2.65;1.30;;;0.80;76.90;;;;;;5052745;28;20107;-80
2021/11/30 02:38:13;;;;;;;3.75;1.52;;;0.80;77.30;;;;;;5052816;28;20033;-79
2021/11/30 02:40:39;;;;;;;3.20;1.52;;;0.90;76.70;;;;;;5052690;28;20118;-78
2021/11/30 02:43:05;;;;;;;2.78;1.27;;;0.90;76.20;;;;;;5053261;28;20366;-79
2021/11/30 02:45:31;;;;;;;6.15;2.03;;;1.00;76.20;;;;;;5052816;28;20025;-78
2021/11/30 02:47:57;;;;;;;3.42;1.40;;;0.90;75.90;;;;;;5052694;28;20021;-78
2021/11/30 02:50:23;;;;;;;2.63;1.45;;;1.00;76.00;;;;;;5052534;28;20108;-78
2021/11/30 02:52:49;;;;;;;2.85;1.25;;;0.90;76.10;;;;;;5052618;28;20032;-79
2021/11/30 02:55:15;;;;;;;5.30;2.17;;;0.90;76.00;;;;;;5052643;28;20017;-78
2021/11/30 02:57:40;;;;;;;2.78;1.30;;;1.00;76.10;;;;;;5052477;28;20024;-79
2021/11/30 03:00:07;;;;;;;2.13;1.30;;;0.90;76.30;;;;;;5052517;28;20025;-78
2021/11/30 03:02:33;;;;;;;5.65;1.33;;;1.00;75.60;;;;;;5034865;28;20033;-78
2021/11/30 03:05:01;;;;;;;7.50;1.40;;;1.00;74.80;;;;;;5052707;28;20021;-79
2021/11/30 03:07:31;;;;;;;3.28;1.75;;;1.00;74.60;;;;;;5034668;28;20025;-78
2021/11/30 03:09:57;;;;;;;6.57;1.40;;;1.00;74.60;;;;;;5052629;28;20021;-79
2021/11/30 03:12:23;;;;;;;3.33;1.55;;;1.00;74.90;;;;;;5052445;28;20120;-79
2021/11/30 03:14:49;;;;;;;4.78;1.20;;;1.00;74.40;;;;;;5052346;28;20056;-78
2021/11/30 03:17:16;;;;;;;2.25;1.00;;;1.00;73.60;;;;;;5052352;28;20025;-78
2021/11/30 03:19:42;;;;;;;3.03;1.33;;;1.00;74.00;;;;;;5052573;28;20017;-78
2021/11/30 03:22:08;;;;;;;1.95;1.10;;;1.00;73.80;;;;;;5052498;28;20113;-80
2021/11/30 03:24:34;;;;;;;5.00;1.42;;;1.00;74.10;;;;;;5052528;28;20024;-79
2021/11/30 03:27:00;;;;;;;3.58;1.45;;;1.00;73.40;;;;;;5052400;28;20025;-80
2021/11/30 03:29:26;;;;;;;6.80;2.05;;;1.10;72.80;;;;;;5052202;28;20386;-80
2021/11/30 03:32:00;;;;;;;2.92;1.10;;;1.10;72.40;;;;;;5053154;28;20400;-79
2021/11/30 03:34:26;;;;;;;7.30;1.10;;;1.20;71.80;;;;;;5055787;28;20013;-80
2021/11/30 03:36:54;;;;;;;3.33;1.50;;;1.10;71.30;;;;;;5055944;28;20060;-79
2021/11/30 03:39:25;;;;;;;6.82;1.73;;;1.20;71.50;;;;;;5038006;28;20071;-78
2021/11/30 03:41:53;;;;;;;2.10;1.10;;;1.10;72.20;;;;;;5055768;28;20079;-79
2021/11/30 03:44:20;;;;;;;5.68;1.67;;;1.10;70.80;;;;;;5037941;28;20381;-79
2021/11/30 03:46:46;;;;;;;6.70;1.50;;;1.10;71.10;;;;;;5037807;28;20469;-80
2021/11/30 03:49:12;;;;;;;4.95;1.13;;;1.10;71.40;;;;;;5055574;28;20499;-79
2021/11/30 03:51:38;;;;;;;3.42;1.23;;;1.10;70.90;;;;;;5055305;28;20100;-79
2021/11/30 03:54:05;;;;;;;6.90;1.10;;;1.10;70.80;;;;;;5055496;28;20021;-79
2021/11/30 03:56:30;;;;;;;1.83;1.10;;;1.10;71.00;;;;;;5055567;28;20035;-80
2021/11/30 03:58:56;;;;;;;4.43;0.80;;;1.10;70.60;;;;;;5055257;28;20021;-79
2021/11/30 04:01:22;;;;;;;4.13;1.50;;;1.20;70.30;;;;;;5055377;28;20035;-79
2021/11/30 04:03:48;;;;;;;2.15;0.90;;;1.30;69.30;;;;;;5055360;28;20029;-80
2021/11/30 04:06:13;;;;;;;2.58;0.98;;;1.30;68.60;;;;;;5055403;28;20021;-79
2021/11/30 04:08:39;;;;;;;4.13;1.30;;;1.20;69.40;;;;;;5055136;28;20013;-78
2021/11/30 04:11:09;;;;;;;4.20;1.02;;;1.20;69.80;;;;;;5055142;28;20037;-79
2021/11/30 04:13:36;;;;;;;2.63;1.35;;;1.20;70.10;;;;;;5054963;28;20021;-78
2021/11/30 04:16:02;;;;;;;3.88;1.38;;;1.20;70.00;;;;;;5055188;28;20362;-79
2021/11/30 04:18:28;;;;;;;2.88;1.02;;;1.10;70.30;;;;;;5055135;28;20101;-79
2021/11/30 04:20:54;;;;;;;5.13;1.60;;;1.10;71.10;;;;;;5054960;28;20049;-79
2021/11/30 04:23:20;;;;;;;3.35;1.27;;;1.10;71.10;;;;;;5055017;28;20036;-79
2021/11/30 04:25:45;;;;;;;5.38;1.85;;;1.10;71.00;;;;;;5054837;28;20044;-79
2021/11/30 04:28:12;;;;;;;3.38;1.20;;;1.10;71.00;;;;;;5054682;28;20071;-79
2021/11/30 04:30:37;;;;;;;6.35;1.50;;;1.10;71.50;;;;;;5054817;28;20040;-79
2021/11/30 04:33:03;;;;;;;6.70;1.30;;;1.00;71.40;;;;;;5054701;28;20103;-79
2021/11/30 04:35:29;;;;;;;4.13;1.50;;;1.00;71.70;;;;;;5036774;28;20086;-79
2021/11/30 04:37:54;;;;;;;6.53;1.40;;;1.00;72.00;;;;;;5036798;28;20484;-79
2021/11/30 04:40:20;;;;;;;4.00;1.20;;;1.00;72.00;;;;;;5054751;28;20029;-79
2021/11/30 04:42:47;;;;;;;3.83;1.48;;;1.00;72.20;;;;;;5054113;28;20464;-79
2021/11/30 04:45:30;;;;;;;4.35;1.60;;;1.00;72.20;;;;;;5054127;28;20013;-80
2021/11/30 04:47:56;;;;;;;6.97;1.95;;;1.00;71.80;;;;;;5054480;28;20032;-80
2021/11/30 04:50:26;;;;;;;4.60;1.80;;;1.00;71.50;;;;;;5054302;28;20027;-79
2021/11/30 04:52:53;;;;;;;4.40;1.70;;;1.00;71.60;;;;;;5054407;28;20040;-79
2021/11/30 04:55:29;;;;;;;7.22;1.77;;;1.00;71.30;;;;;;5054245;28;20040;-79
2021/11/30 04:57:57;;;;;;;2.38;1.38;;;1.00;71.40;;;;;;5054303;28;20024;-79
2021/11/30 05:00:25;;;;;;;10.05;2.03;;;1.00;71.80;;;;;;5036292;28;20112;-79
2021/11/30 05:02:50;;;;;;;3.40;1.38;;;1.00;71.80;;;;;;5054023;28;20096;-79
2021/11/30 05:05:16;;;;;;;5.13;1.40;;;1.00;71.40;;;;;;5054309;28;20052;-79
2021/11/30 05:07:43;;;;;;;4.70;1.42;;;1.00;71.60;;;;;;5054105;28;20047;-77
2021/11/30 05:10:10;;;;;;;3.72;1.38;;;1.00;71.50;;;;;;5053888;28;20013;-79
2021/11/30 05:12:35;;;;;;;3.97;1.83;;;0.90;71.80;;;;;;5054176;28;20155;-79
2021/11/30 05:15:03;;;;;;;7.97;1.60;;;0.90;72.20;;;;;;5054180;28;20048;-78
2021/11/30 05:17:28;;;;;;;3.28;1.33;;;0.90;71.90;;;;;;5054993;28;20056;-79
2021/11/30 05:19:54;;;;;;;3.30;1.55;;;0.90;72.10;;;;;;5053782;28;20102;-78
2021/11/30 05:22:20;;;;;;;4.95;1.50;;;0.90;72.10;;;;;;5054123;28;20074;-79
2021/11/30 05:24:46;;;;;;;4.18;1.80;;;0.90;72.10;;;;;;5053841;28;20024;-78
2021/11/30 05:27:11;;;;;;;3.58;1.42;;;0.90;72.60;;;;;;5053688;28;20025;-79
2021/11/30 05:29:37;;;;;;;5.82;1.88;;;0.80;72.70;;;;;;5053679;28;20405;-78
2021/11/30 05:32:03;;;;;;;5.22;2.20;;;0.80;73.00;;;;;;5060112;28;20037;-79
2021/11/30 05:34:28;;;;;;;1.88;1.65;;;0.80;72.70;;;;;;5056180;28;20048;-80
2021/11/30 05:36:54;;;;;;;4.63;1.90;;;0.80;72.80;;;;;;5053583;28;20024;-79
2021/11/30 05:39:19;;;;;;;5.22;1.50;;;0.80;73.00;;;;;;5053453;28;20048;-78
2021/11/30 05:41:45;;;;;;;5.05;2.17;;;0.80;73.20;;;;;;5053608;28;20021;-79
2021/11/30 05:44:10;;;;;;;3.97;2.10;;;0.70;73.50;;;;;;5035525;28;20025;-78
2021/11/30 05:46:37;;;;;;;3.40;1.80;;;0.70;74.40;;;;;;5053452;28;20070;-79
2021/11/30 05:49:06;;;;;;;4.03;1.77;;;0.70;73.90;;;;;;5035521;28;20025;-79
2021/11/30 05:51:33;;;;;;;6.03;2.15;;;0.70;73.80;;;;;;5035203;28;20048;-79
2021/11/30 05:53:59;;;;;;;7.40;2.42;;;0.70;73.30;;;;;;5035256;28;20461;-78
2021/11/30 05:56:25;;;;;;;5.45;1.92;;;0.70;73.20;;;;;;5053156;28;20044;-78
2021/11/30 05:58:51;;;;;;;5.75;2.28;;;0.70;73.20;;;;;;5053661;28;20029;-77
2021/11/30 06:01:22;;;;;;;5.50;2.40;;;0.70;73.20;;;;;;5055642;28;20029;-78
2021/11/30 06:06:15;;;;;;;4.32;1.85;;;0.70;73.70;;;;;;5053334;28;20069;-78
2021/11/30 06:08:41;;;;;;;9.32;2.80;;;0.60;75.00;;;;;;5052876;28;20021;-78
2021/11/30 06:11:07;;;;;;;4.72;1.85;;;0.60;74.10;;;;;;5053019;28;20033;-79
2021/11/30 06:13:32;;;;;;;7.50;2.65;;;0.70;74.00;;;;;;5053077;28;20104;-78
2021/11/30 06:15:58;;;;;;;4.22;2.33;;;0.70;73.80;;;;;;5052889;28;20081;-78
2021/11/30 06:18:23;;;;;;;4.40;2.05;;;0.70;74.00;;;;;;5034761;28;20013;-78
2021/11/30 06:20:50;;;;;;;5.60;1.90;;;0.70;73.40;;;;;;5052869;28;20483;-78
2021/11/30 06:23:16;;;;;;;6.55;2.40;;;0.70;73.60;;;;;;5052664;28;20389;-79
2021/11/30 06:25:41;;;;;;;3.72;2.38;;;0.70;74.10;;;;;;5052772;28;20025;-78
2021/11/30 06:28:07;;;;;;;5.43;2.33;;;0.70;74.30;;;;;;5052522;28;20391;-78
2021/11/30 06:30:32;;;;;;;6.32;2.47;;;0.70;74.20;;;;;;5052051;28;20037;-79
2021/11/30 06:32:58;;;;;;;2.00;1.80;;;0.70;74.20;;;;;;5052227;28;20025;-79
2021/11/30 06:35:24;;;;;;;3.22;2.13;;;0.60;74.20;;;;;;5052310;28;20092;-79
2021/11/30 06:37:50;;;;;;;4.97;2.17;;;0.70;74.00;;;;;;5052077;28;20048;-78
2021/11/30 06:40:16;;;;;;;7.40;2.08;;;0.70;74.30;;;;;;5052483;28;20028;-79
2021/11/30 06:42:42;;;;;;;3.85;1.80;;;0.70;74.40;;;;;;5052298;28;20025;-78
2021/11/30 06:45:08;;;;;;;7.25;1.90;;;0.70;74.00;;;;;;5034408;28;20025;-79
2021/11/30 06:47:34;;;;;;;7.22;2.40;;;0.70;74.30;;;;;;5052302;28;20033;-78
2021/11/30 06:50:00;;;;;;;4.63;1.90;;;0.70;74.60;;;;;;5052322;28;20017;-78
2021/11/30 06:52:26;;;;;;;4.00;1.80;;;0.70;74.40;;;;;;5034044;28;20128;-78
2021/11/30 06:54:55;;;;;;;3.15;1.85;;;0.70;74.90;;;;;;5052260;28;20068;-78
2021/11/30 06:57:22;;;;;;;5.70;2.17;;;0.70;75.10;;;;;;5052159;28;20025;-78
2021/11/30 06:59:49;;;;;;;3.55;1.70;;;0.60;75.40;;;;;;5034385;28;20530;-78
2021/11/30 07:02:15;;;;;;;3.13;1.70;;;0.70;75.60;;;;;;5052163;28;20104;-78
2021/11/30 07:04:43;;;;;;;3.35;2.20;;;0.70;75.60;;;;;;5051721;28;20061;-78
2021/11/30 07:15:09;;;;;;;5.47;1.83;;;0.70;77.10;;;;;;5056106;28;20025;-78
2021/11/30 07:17:35;;;;;;;3.53;1.75;;;0.60;77.20;;;;;;5055700;28;20419;-79
2021/11/30 07:20:01;;;;;;;2.65;1.73;;;0.60;76.80;;;;;;5055910;28;20032;-79
2021/11/30 07:22:27;;;;;;;4.53;2.58;;;0.60;77.30;;;;;;5055821;28;20025;-80
2021/11/30 07:24:53;;;;;;;4.78;1.83;;;0.60;77.60;;;;;;5055664;28;20098;-81
2021/11/30 07:27:18;;;;;;;4.90;2.25;;;0.70;77.50;;;;;;5055894;28;20018;-79
2021/11/30 07:29:44;;;;;;;4.18;2.00;;;0.70;77.80;;;;;;5055385;28;20049;-77
2021/11/30 07:32:10;;;;;;;6.78;1.88;;;0.60;77.00;;;;;;5055599;28;20044;-79
2021/11/30 07:34:36;;;;;;;5.93;1.70;;;0.70;77.30;;;;;;5055666;28;20021;-78
2021/11/30 07:37:02;;;;;;;3.88;1.95;;;0.70;77.40;;;;;;5055585;28;20025;-79
2021/11/30 07:39:28;;;;;;;4.72;1.95;;;0.70;77.30;;;;;;5055496;28;20027;-77
2021/11/30 07:41:54;;;;;;;4.13;1.95;;;0.80;77.10;;;;;;5055550;28;20053;-77
2021/11/30 07:44:19;;;;;;;2.08;1.50;;;0.80;76.40;;;;;;5055530;28;20516;-80
2021/11/30 07:46:45;;;;;;;3.58;1.98;;;0.90;75.70;;;;;;5055373;28;20052;-81
2021/11/30 07:49:12;;;;;;;3.75;1.73;;;1.00;75.40;;;;;;5037575;28;20032;-78
2021/11/30 07:51:38;;;;;;;3.92;1.70;;;1.00;75.00;;;;;;5055265;28;20024;-77
2021/11/30 07:54:04;;;;;;;2.17;1.45;;;1.00;74.80;;;;;;5055286;28;20025;-74
2021/11/30 07:56:31;;;;;;;1.52;1.15;;;1.00;74.80;;;;;;5055360;28;20033;-79
2021/11/30 07:58:57;;;;;;;2.22;1.45;;;0.90;74.90;;;;;;5055402;28;20029;-77
2021/11/30 08:01:23;;;;;;;3.38;2.17;;;1.00;75.00;;;;;;5055059;28;20135;-77
2021/11/30 08:03:48;;;;;;;4.95;2.00;;;1.00;74.80;;;;;;5037158;28;20420;-77
2021/11/30 08:06:14;;;;;;;3.33;1.90;;;1.00;74.60;;;;;;5055324;28;20052;-77
2021/11/30 08:08:41;;;;;;;3.25;1.55;;;1.10;74.50;;;;;;5054839;28;20032;-76
2021/11/30 08:11:07;;;;;;;3.35;1.60;;;1.10;74.20;;;;;;5054940;28;20120;-77
2021/11/30 08:13:33;;;;;;;1.98;1.38;;;1.10;73.70;;;;;;5054692;28;20370;-75
2021/11/30 08:15:58;;;;;;;5.05;1.70;;;1.40;75.50;;;;;;5054629;28;20036;-76
2021/11/30 08:18:24;;;;;;;5.15;1.38;;;1.60;74.00;;;;;;5054770;28;20017;-75
2021/11/30 08:20:50;;;;;;;2.88;1.70;;;1.80;72.60;;;;;;5054813;28;20029;-76
2021/11/30 08:23:15;;;;;;;1.85;1.27;;;2.20;74.80;;;;;;5054604;28;20029;-77
2021/11/30 08:25:42;;;;;;;2.60;1.75;;;2.40;71.30;;;;;;5054435;28;20021;-76
2021/11/30 08:28:08;;;;;;;3.47;1.90;;;2.70;69.40;;;;;;5054347;28;20120;-76
2021/11/30 08:30:34;;;;;;;2.90;1.50;;;2.50;68.80;;;;;;5054599;28;20033;-75
2021/11/30 08:33:00;;;;;;;3.17;1.45;;;2.50;69.80;;;;;;5054197;28;20031;-76
2021/11/30 08:35:26;;;;;;;2.35;1.55;;;2.40;68.60;;;;;;5054518;28;20527;-76
2021/11/30 08:37:51;;;;;;;2.42;1.40;;;2.10;69.40;;;;;;5036460;28;20025;-79
2021/11/30 08:40:17;;;;;;;3.65;1.27;;;1.90;70.20;;;;;;5054492;28;20028;-79
2021/11/30 08:42:43;;;;;;;5.00;1.30;;;1.70;71.00;;;;;;5054293;28;20108;-79
2021/11/30 08:45:10;;;;;;;1.23;1.10;;;1.60;71.60;;;;;;5054085;28;20465;-80
2021/11/30 08:47:37;;;;;;;3.78;1.45;;;1.60;72.10;;;;;;5054042;28;20499;-79
2021/11/30 08:50:06;;;;;;;1.30;0.95;;;1.50;72.40;;;;;;5054095;28;20112;-78
2021/11/30 08:52:32;;;;;;;2.13;1.05;;;1.50;72.50;;;;;;5053644;28;20400;-78
2021/11/30 08:54:57;;;;;;;3.33;1.40;;;1.50;72.20;;;;;;5036060;28;20032;-79
2021/11/30 08:57:26;;;;;;;2.83;1.17;;;1.50;72.70;;;;;;5054041;28;20036;-78
2021/11/30 08:59:53;;;;;;;1.45;0.90;;;1.50;72.80;;;;;;5053875;28;20025;-79
2021/11/30 09:02:20;;;;;;;2.03;0.95;;;1.60;72.20;;;;;;5053869;28;20025;-78
2021/11/30 09:04:46;;;;;;;1.08;0.82;;;1.50;72.20;;;;;;5053908;28;20028;-78
2021/11/30 09:07:11;;;;;;;4.10;1.50;;;1.60;72.30;;;;;;5053815;28;20041;-77
2021/11/30 09:09:37;;;;;;;2.78;1.52;;;1.60;72.60;;;;;;5053803;28;20461;-77
2021/11/30 09:12:04;;;;;;;1.23;0.90;;;1.60;72.90;;;;;;5053490;28;20037;-78
2021/11/30 09:14:30;;;;;;;3.95;1.50;;;1.60;72.70;;;;;;5053439;28;20029;-78
2021/11/30 09:16:57;;;;;;;1.58;1.23;;;1.60;72.70;;;;;;5053546;28;20458;-78
2021/11/30 09:19:23;;;;;;;1.83;1.02;;;1.80;72.80;;;;;;5053636;28;20075;-78
2021/11/30 09:21:49;;;;;;;1.42;0.90;;;1.80;72.50;;;;;;5053482;28;20025;-77
2021/11/30 09:24:15;;;;;;;2.35;1.30;;;1.80;72.50;;;;;;5053293;28;20021;-77
2021/11/30 09:26:41;;;;;;;1.13;0.88;;;1.80;72.70;;;;;;5053121;28;20032;-77
2021/11/30 09:29:08;;;;;;;1.10;0.77;;;1.80;72.80;;;;;;5052494;28;20159;-77
2021/11/30 09:31:34;;;;;;;2.03;1.10;;;1.90;73.20;;;;;;5053124;28;20470;-77
2021/11/30 09:34:02;;;;;;;1.85;1.08;;;1.90;72.90;;;;;;5053187;28;20044;-77
2021/11/30 09:36:30;;;;;;;3.08;1.75;;;1.90;73.10;;;;;;5053285;28;20381;-77
2021/11/30 09:38:56;;;;;;;2.50;0.90;;;2.00;73.20;;;;;;5034995;28;20458;-78
2021/11/30 09:41:22;;;;;;;1.98;0.85;;;2.00;73.10;;;;;;5053027;28;20037;-78
2021/11/30 09:43:52;;;;;;;2.55;0.90;;;2.00;73.00;;;;;;5052894;28;20017;-77
2021/11/30 09:46:17;;;;;;;1.67;1.02;;;2.10;73.00;;;;;;5052980;28;20032;-77
2021/11/30 09:48:44;;;;;;;2.83;1.20;;;2.30;72.60;;;;;;5052968;28;20059;-76
2021/11/30 09:51:10;;;;;;;2.03;1.20;;;2.30;72.10;;;;;;5052929;28;20047;-77
2021/11/30 09:53:35;;;;;;;1.23;0.90;;;2.30;72.30;;;;;;5052791;28;20462;-77
2021/11/30 09:56:02;;;;;;;2.55;0.80;;;2.30;72.50;;;;;;5053088;28;20377;-77
2021/11/30 09:58:28;;;;;;;2.60;1.17;;;2.40;72.40;;;;;;5034896;28;20516;-79
2021/11/30 10:00:57;;;;;;;1.98;0.65;;;2.30;72.40;;;;;;5052850;28;20033;-77
2021/11/30 10:03:25;;;;;;;1.35;0.70;;;2.40;72.60;;;;;;5052570;28;20017;-76
2021/11/30 10:05:52;;;;;;;2.72;0.73;;;2.40;72.80;;;;;;5052286;28;20469;-77
2021/11/30 10:08:36;;;;;;;3.88;0.80;;;2.50;72.60;;;;;;5052591;28;20048;-76
2021/11/30 10:11:04;;;;;;;1.23;0.70;;;2.70;71.80;;;;;;5052655;28;20492;-77
2021/11/30 10:13:30;;;;;;;1.55;1.00;;;2.70;71.40;;;;;;5052870;28;20033;-77
2021/11/30 10:16:05;;;;;;;5.43;1.35;;;2.70;71.60;;;;;;5052953;28;20516;-77
2021/11/30 10:18:38;;;;;;;0.80;0.57;;;2.80;71.30;;;;;;5052789;28;20017;-77
2021/11/30 10:21:14;;;;;;;1.67;0.68;;;2.70;71.40;;;;;;5052479;28;20021;-77
2021/11/30 10:23:56;;;;;;;0.70;0.70;;;2.60;71.70;;;;;;5034457;28;20372;-77
2021/11/30 10:26:27;;;;;;;1.55;0.88;;;2.60;72.70;;;;;;5052437;28;20136;-77
2021/11/30 10:29:04;;;;;;;1.27;0.68;;;2.60;72.60;;;;;;5034356;28;20061;-77
2021/11/30 10:31:39;;;;;;;4.97;0.73;;;2.50;73.00;;;;;;5052093;28;20042;-77
2021/11/30 10:34:28;;;;;;;0.77;0.50;;;2.40;73.80;;;;;;5052121;28;20158;-79
2021/11/30 10:37:09;;;;;;;6.28;1.10;;;2.40;74.00;;;;;;5052190;28;20036;-77
2021/11/30 10:39:38;;;;;;;0.90;0.70;;;2.40;74.40;;;;;;5034283;28;20024;-77
2021/11/30 10:42:15;;;;;;;7.60;3.22;;;2.50;74.20;;;;;;5053539;28;20036;-77
2021/11/30 10:44:41;;;;;;;1.60;0.70;;;2.50;74.40;;;;;;5038268;28;20025;-78
2021/11/30 10:47:15;;;;;;;3.25;0.95;;;2.50;74.30;;;;;;5038495;28;20132;-78
2021/11/30 10:49:56;;;;;;;3.38;0.80;;;2.50;74.50;;;;;;5056240;28;20021;-76
2021/11/30 10:52:25;;;;;;;3.15;0.88;;;2.60;74.10;;;;;;5038168;28;20451;-77
2021/11/30 10:55:03;;;;;;;1.15;0.80;;;2.70;73.70;;;;;;5056226;28;20056;-77
2021/11/30 10:57:30;;;;;;;2.40;0.77;;;2.70;73.50;;;;;;5056179;28;20381;-77
2021/11/30 11:00:31;;;;;;;1.88;0.68;;;2.70;73.10;;;;;;5055803;28;20017;-77
2021/11/30 11:03:07;;;;;;;1.13;0.80;;;2.70;73.20;;;;;;5041985;28;20082;-77
2021/11/30 11:05:39;;;;;;;0.95;0.60;;;2.70;73.80;;;;;;5037538;28;20346;-77
2021/11/30 11:08:19;;;;;;;2.28;0.77;;;2.70;73.60;;;;;;5056053;28;20025;-76
2021/11/30 11:10:50;;;;;;;0.77;0.65;;;2.70;73.90;;;;;;5056151;28;20029;-78
2021/11/30 11:13:24;;;;;;;4.63;0.85;;;2.70;73.80;;;;;;5055736;28;20160;-77
2021/11/30 11:15:51;;;;;;;1.80;0.95;;;2.70;74.00;;;;;;5055730;28;20113;-76
2021/11/30 11:18:31;;;;;;;1.77;0.52;;;2.60;74.40;;;;;;5056143;28;20112;-76
2021/11/30 11:21:19;;;;;;;2.05;0.88;;;2.60;75.00;;;;;;5056185;28;20025;-76
2021/11/30 11:23:56;;;;;;;1.65;0.63;;;2.60;74.70;;;;;;5056061;28;20532;-78
2021/11/30 11:26:41;;;;;;;2.28;0.63;;;2.70;74.60;;;;;;5064249;28;20089;-79
2021/11/30 11:29:13;;;;;;;2.03;0.60;;;2.60;74.70;;;;;;5071185;28;20036;-77
2021/11/30 11:31:41;;;;;;;1.33;0.70;;;2.60;74.60;;;;;;5072938;28;20088;-77
2021/11/30 11:34:10;;;;;;;1.27;0.70;;;2.60;75.20;;;;;;5071177;28;20013;-78
2021/11/30 11:36:36;;;;;;;3.08;0.90;;;2.70;74.70;;;;;;5071358;28;20025;-78
2021/11/30 11:39:04;;;;;;;2.85;0.70;;;2.70;74.90;;;;;;5070004;28;20410;-78
2021/11/30 11:41:30;;;;;;;4.68;0.63;;;2.70;74.70;;;;;;5071611;28;20033;-78
2021/11/30 11:43:58;;;;;;;0.50;0.45;;;2.80;74.50;;;;;;5064015;28;20021;-78
2021/11/30 11:46:31;;;;;;;2.15;0.40;;;2.80;74.60;;;;;;5054708;28;20017;-77
2021/11/30 11:48:59;;;;;;;1.05;0.60;;;2.80;75.00;;;;;;5054158;28;20032;-77
2021/11/30 11:51:35;;;;;;;0.95;0.50;;;2.80;75.20;;;;;;5055623;28;20373;-77
2021/11/30 11:54:01;;;;;;;2.78;1.10;;;2.90;75.00;;;;;;5038578;28;20032;-77
2021/11/30 11:56:30;;;;;;;1.58;0.57;;;2.80;75.20;;;;;;5054966;28;20029;-77
2021/11/30 11:59:10;;;;;;;2.72;0.60;;;2.80;75.30;;;;;;5055077;28;20017;-77
2021/11/30 12:01:38;;;;;;;4.18;0.82;;;2.80;75.90;;;;;;5054875;28;20036;-78
2021/11/30 12:04:08;;;;;;;1.55;0.68;;;2.60;76.70;;;;;;5054722;28;20094;-78
2021/11/30 12:06:58;;;;;;;1.00;0.60;;;2.70;76.90;;;;;;5055081;28;20516;-78
2021/11/30 12:09:29;;;;;;;0.70;0.40;;;2.70;77.30;;;;;;5036682;28;20345;-78
2021/11/30 12:11:57;;;;;;;0.88;0.57;;;2.70;76.80;;;;;;5054909;28;20037;-77
2021/11/30 12:14:31;;;;;;;0.95;0.85;;;2.70;76.90;;;;;;5036953;28;20032;-76
2021/11/30 12:17:07;;;;;;;5.20;0.70;;;2.70;76.90;;;;;;5054923;28;20025;-76
2021/11/30 12:19:36;;;;;;;1.23;0.70;;;2.70;77.30;;;;;;5054853;28;20017;-78
2021/11/30 12:22:02;;;;;;;1.55;0.65;;;2.70;77.10;;;;;;5054550;28;20027;-78
2021/11/30 12:24:38;;;;;;;0.88;0.60;;;2.70;76.90;;;;;;5054414;28;20056;-77
2021/11/30 12:27:22;;;;;;;2.20;0.82;;;2.70;77.50;;;;;;5054546;28;20017;-78
2021/11/30 12:29:49;;;;;;;1.48;0.60;;;2.80;77.60;;;;;;5053943;28;20057;-77
2021/11/30 12:32:38;;;;;;;1.20;0.90;;;2.70;77.70;;;;;;5054089;28;20131;-78
2021/11/30 12:35:08;;;;;;;1.08;0.55;;;2.70;78.30;;;;;;5054083;28;20074;-77
2021/11/30 12:37:37;;;;;;;1.23;0.85;;;2.70;78.50;;;;;;5054198;28;20039;-78
2021/11/30 12:40:07;;;;;;;1.58;0.70;;;2.70;78.70;;;;;;5053994;28;20017;-77
2021/11/30 12:42:39;;;;;;;1.00;0.90;;;2.70;78.90;;;;;;5053950;28;20024;-76
2021/11/30 12:45:09;;;;;;;2.72;0.93;;;2.70;78.90;;;;;;5054264;28;20107;-76
2021/11/30 12:47:34;;;;;;;1.45;0.73;;;2.60;79.20;;;;;;5054177;28;20130;-76
2021/11/30 12:50:00;;;;;;;1.77;0.50;;;2.70;79.50;;;;;;5054249;28;20033;-77
2021/11/30 12:52:32;;;;;;;1.20;0.80;;;2.60;79.50;;;;;;5036558;28;20099;-77
2021/11/30 12:55:00;;;;;;;2.13;0.70;;;2.60;79.20;;;;;;5054130;28;20032;-77
2021/11/30 12:57:31;;;;;;;1.73;0.77;;;2.60;79.60;;;;;;5053848;28;20029;-77
2021/11/30 13:00:01;;;;;;;1.15;1.00;;;2.70;79.70;;;;;;5054106;28;20021;-77
2021/11/30 13:02:34;;;;;;;1.63;0.80;;;2.70;80.00;;;;;;5054021;28;20075;-77
2021/11/30 13:05:13;;;;;;;1.95;0.50;;;2.60;80.10;;;;;;5053163;28;20031;-77
2021/11/30 13:07:47;;;;;;;2.25;0.50;;;2.70;80.20;;;;;;5053799;28;20047;-77
2021/11/30 13:10:28;;;;;;;1.27;0.80;;;2.70;79.60;;;;;;5053977;28;20021;-77
2021/11/30 13:12:57;;;;;;;2.08;0.50;;;2.60;80.40;;;;;;5053824;28;20029;-77
2021/11/30 13:15:23;;;;;;;0.70;0.50;;;2.70;80.00;;;;;;5053671;28;20102;-78